sensor_id;sensor_type;location;lat;lon;timestamp;P1;durP1;ratioP1;P2;durP2;ratioP2
7989;SDS011;4040;42.848;23.034;2023-04-08T00:03:31;49.83;;;22.70;;
7989;SDS011;4040;42.848;23.034;2023-04-08T00:09:51;30.43;;;16.43;;
7989;SDS011;4040;42.848;23.034;2023-04-08T00:15:40;29.07;;;16.77;;
7989;SDS011;4040;42.848;23.034;2023-04-08T00:21:29;74.20;;;29.07;;
7989;SDS011;4040;42.848;23.034;2023-04-08T00:27:19;20.47;;;12.67;;
7989;SDS011;4040;42.848;23.034;2023-04-08T00:33:07;32.27;;;19.07;;
7989;SDS011;4040;42.848;23.034;2023-04-08T00:38:56;26.37;;;14.83;;
7989;SDS011;4040;42.848;23.034;2023-04-08T00:44:47;23.77;;;14.63;;
7989;SDS011;4040;42.848;23.034;2023-04-08T00:50:35;18.50;;;13.90;;
7989;SDS011;4040;42.848;23.034;2023-04-08T00:56:24;69.43;;;29.57;;
7989;SDS011;4040;42.848;23.034;2023-04-08T01:02:26;36.27;;;21.27;;
7989;SDS011;4040;42.848;23.034;2023-04-08T01:08:22;30.63;;;18.37;;
7989;SDS011;4040;42.848;23.034;2023-04-08T01:14:18;28.90;;;15.77;;
7989;SDS011;4040;42.848;23.034;2023-04-08T01:20:10;17.20;;;12.63;;
7989;SDS011;4040;42.848;23.034;2023-04-08T01:26:04;22.00;;;14.60;;
7989;SDS011;4040;42.848;23.034;2023-04-08T01:31:52;17.20;;;12.47;;
7989;SDS011;4040;42.848;23.034;2023-04-08T01:37:43;17.83;;;13.87;;
7989;SDS011;4040;42.848;23.034;2023-04-08T01:43:35;17.57;;;14.27;;
7989;SDS011;4040;42.848;23.034;2023-04-08T01:49:26;18.37;;;13.17;;
7989;SDS011;4040;42.848;23.034;2023-04-08T01:55:16;37.43;;;19.13;;
7989;SDS011;4040;42.848;23.034;2023-04-08T02:01:08;34.67;;;19.87;;
7989;SDS011;4040;42.848;23.034;2023-04-08T02:07:00;21.40;;;13.57;;
7989;SDS011;4040;42.848;23.034;2023-04-08T02:17:12;13.43;;;10.53;;
7989;SDS011;4040;42.848;23.034;2023-04-08T02:23:08;13.50;;;10.00;;
7989;SDS011;4040;42.848;23.034;2023-04-08T02:29:01;13.00;;;10.17;;
7989;SDS011;4040;42.848;23.034;2023-04-08T02:34:53;15.43;;;10.90;;
7989;SDS011;4040;42.848;23.034;2023-04-08T02:40:43;13.97;;;11.57;;
7989;SDS011;4040;42.848;23.034;2023-04-08T02:46:32;19.10;;;11.93;;
7989;SDS011;4040;42.848;23.034;2023-04-08T02:52:22;17.00;;;13.23;;
7989;SDS011;4040;42.848;23.034;2023-04-08T02:58:11;28.57;;;21.07;;
7989;SDS011;4040;42.848;23.034;2023-04-08T03:04:00;30.30;;;18.47;;
7989;SDS011;4040;42.848;23.034;2023-04-08T03:09:50;23.43;;;16.60;;
7989;SDS011;4040;42.848;23.034;2023-04-08T03:20:02;31.50;;;16.97;;
7989;SDS011;4040;42.848;23.034;2023-04-08T03:25:54;23.93;;;16.10;;
7989;SDS011;4040;42.848;23.034;2023-04-08T03:31:42;26.13;;;17.93;;
7989;SDS011;4040;42.848;23.034;2023-04-08T03:37:31;30.17;;;18.73;;
7989;SDS011;4040;42.848;23.034;2023-04-08T03:43:22;27.63;;;18.63;;
7989;SDS011;4040;42.848;23.034;2023-04-08T03:49:11;34.77;;;18.77;;
7989;SDS011;4040;42.848;23.034;2023-04-08T03:55:00;57.80;;;32.00;;
7989;SDS011;4040;42.848;23.034;2023-04-08T04:00:50;37.97;;;25.97;;
7989;SDS011;4040;42.848;23.034;2023-04-08T04:06:39;45.73;;;30.90;;
7989;SDS011;4040;42.848;23.034;2023-04-08T04:12:28;46.17;;;29.40;;
7989;SDS011;4040;42.848;23.034;2023-04-08T04:22:39;43.10;;;27.67;;
7989;SDS011;4040;42.848;23.034;2023-04-08T04:28:28;47.07;;;28.67;;
7989;SDS011;4040;42.848;23.034;2023-04-08T04:34:47;110.17;;;41.60;;
7989;SDS011;4040;42.848;23.034;2023-04-08T04:40:37;56.23;;;30.60;;
7989;SDS011;4040;42.848;23.034;2023-04-08T04:46:26;44.73;;;28.03;;
7989;SDS011;4040;42.848;23.034;2023-04-08T04:52:15;48.20;;;29.33;;
7989;SDS011;4040;42.848;23.034;2023-04-08T04:58:05;42.10;;;28.13;;
7989;SDS011;4040;42.848;23.034;2023-04-08T05:03:54;42.27;;;27.10;;
7989;SDS011;4040;42.848;23.034;2023-04-08T05:09:42;160.70;;;69.37;;
7989;SDS011;4040;42.848;23.034;2023-04-08T05:15:32;44.27;;;26.33;;
7989;SDS011;4040;42.848;23.034;2023-04-08T05:25:44;42.00;;;28.30;;
7989;SDS011;4040;42.848;23.034;2023-04-08T05:31:34;43.87;;;26.23;;
7989;SDS011;4040;42.848;23.034;2023-04-08T05:37:23;53.03;;;37.20;;
7989;SDS011;4040;42.848;23.034;2023-04-08T05:43:11;54.17;;;37.40;;
7989;SDS011;4040;42.848;23.034;2023-04-08T05:49:02;55.00;;;38.10;;
7989;SDS011;4040;42.848;23.034;2023-04-08T05:54:51;58.03;;;34.67;;
7989;SDS011;4040;42.848;23.034;2023-04-08T06:00:39;50.70;;;34.00;;
7989;SDS011;4040;42.848;23.034;2023-04-08T06:06:30;58.17;;;37.83;;
7989;SDS011;4040;42.848;23.034;2023-04-08T06:12:18;39.33;;;24.67;;
7989;SDS011;4040;42.848;23.034;2023-04-08T06:18:07;27.93;;;18.53;;
7989;SDS011;4040;42.848;23.034;2023-04-08T06:28:18;49.53;;;37.17;;
7989;SDS011;4040;42.848;23.034;2023-04-08T06:34:07;36.63;;;20.67;;
7989;SDS011;4040;42.848;23.034;2023-04-08T06:39:56;35.43;;;23.40;;
7989;SDS011;4040;42.848;23.034;2023-04-08T06:45:46;28.13;;;18.23;;
7989;SDS011;4040;42.848;23.034;2023-04-08T06:51:34;30.63;;;21.40;;
7989;SDS011;4040;42.848;23.034;2023-04-08T06:57:23;25.93;;;16.87;;
7989;SDS011;4040;42.848;23.034;2023-04-08T07:03:13;27.70;;;19.00;;
7989;SDS011;4040;42.848;23.034;2023-04-08T07:09:02;22.77;;;15.97;;
7989;SDS011;4040;42.848;23.034;2023-04-08T07:14:51;22.33;;;14.97;;
7989;SDS011;4040;42.848;23.034;2023-04-08T07:20:41;17.47;;;13.23;;
7989;SDS011;4040;42.848;23.034;2023-04-08T07:30:51;42.20;;;25.40;;
7989;SDS011;4040;42.848;23.034;2023-04-08T07:36:41;26.07;;;17.07;;
7989;SDS011;4040;42.848;23.034;2023-04-08T07:42:30;23.73;;;17.60;;
7989;SDS011;4040;42.848;23.034;2023-04-08T07:48:19;23.27;;;17.30;;
7989;SDS011;4040;42.848;23.034;2023-04-08T07:54:09;18.67;;;14.83;;
7989;SDS011;4040;42.848;23.034;2023-04-08T08:00:02;39.47;;;23.90;;
7989;SDS011;4040;42.848;23.034;2023-04-08T08:05:51;31.57;;;17.60;;
7989;SDS011;4040;42.848;23.034;2023-04-08T08:11:42;19.47;;;14.93;;
7989;SDS011;4040;42.848;23.034;2023-04-08T08:17:30;19.33;;;14.27;;
7989;SDS011;4040;42.848;23.034;2023-04-08T08:23:19;23.63;;;19.10;;
7989;SDS011;4040;42.848;23.034;2023-04-08T08:33:31;16.07;;;12.30;;
7989;SDS011;4040;42.848;23.034;2023-04-08T08:39:20;17.17;;;13.47;;
7989;SDS011;4040;42.848;23.034;2023-04-08T08:45:09;22.97;;;17.37;;
7989;SDS011;4040;42.848;23.034;2023-04-08T08:50:59;17.87;;;12.83;;
7989;SDS011;4040;42.848;23.034;2023-04-08T08:56:48;17.77;;;12.67;;
7989;SDS011;4040;42.848;23.034;2023-04-08T09:02:37;16.43;;;12.60;;
7989;SDS011;4040;42.848;23.034;2023-04-08T09:08:27;18.33;;;13.73;;
7989;SDS011;4040;42.848;23.034;2023-04-08T09:14:18;15.87;;;12.67;;
7989;SDS011;4040;42.848;23.034;2023-04-08T09:20:09;19.17;;;11.83;;
7989;SDS011;4040;42.848;23.034;2023-04-08T09:26:01;15.93;;;10.95;;
7989;SDS011;4040;42.848;23.034;2023-04-08T09:36:17;15.52;;;11.85;;
7989;SDS011;4040;42.848;23.034;2023-04-08T09:42:07;18.20;;;11.48;;
7989;SDS011;4040;42.848;23.034;2023-04-08T09:48:00;14.85;;;11.55;;
7989;SDS011;4040;42.848;23.034;2023-04-08T09:53:58;16.45;;;11.77;;
7989;SDS011;4040;42.848;23.034;2023-04-08T09:59:52;16.07;;;11.17;;
7989;SDS011;4040;42.848;23.034;2023-04-08T10:05:47;15.13;;;10.93;;
7989;SDS011;4040;42.848;23.034;2023-04-08T10:11:39;18.25;;;12.80;;
7989;SDS011;4040;42.848;23.034;2023-04-08T10:17:30;15.57;;;12.57;;
7989;SDS011;4040;42.848;23.034;2023-04-08T10:23:51;42.30;;;24.48;;
7989;SDS011;4040;42.848;23.034;2023-04-08T10:29:46;26.63;;;17.20;;
7989;SDS011;4040;42.848;23.034;2023-04-08T10:35:36;19.65;;;13.93;;
7989;SDS011;4040;42.848;23.034;2023-04-08T10:41:27;90.00;;;40.10;;
7989;SDS011;4040;42.848;23.034;2023-04-08T10:47:16;20.45;;;15.00;;
7989;SDS011;4040;42.848;23.034;2023-04-08T10:53:15;14.13;;;10.80;;
7989;SDS011;4040;42.848;23.034;2023-04-08T10:59:04;13.07;;;10.20;;
7989;SDS011;4040;42.848;23.034;2023-04-08T11:04:53;11.05;;;9.05;;
7989;SDS011;4040;42.848;23.034;2023-04-08T11:10:43;13.80;;;9.60;;
7989;SDS011;4040;42.848;23.034;2023-04-08T11:16:33;16.00;;;11.77;;
7989;SDS011;4040;42.848;23.034;2023-04-08T11:22:22;14.03;;;10.23;;
7989;SDS011;4040;42.848;23.034;2023-04-08T11:28:12;19.40;;;10.90;;
7989;SDS011;4040;42.848;23.034;2023-04-08T11:38:13;17.37;;;11.77;;
7989;SDS011;4040;42.848;23.034;2023-04-08T11:44:04;14.57;;;10.40;;
7989;SDS011;4040;42.848;23.034;2023-04-08T11:49:53;29.30;;;17.53;;
7989;SDS011;4040;42.848;23.034;2023-04-08T11:55:43;16.77;;;12.23;;
7989;SDS011;4040;42.848;23.034;2023-04-08T12:01:33;16.70;;;12.20;;
7989;SDS011;4040;42.848;23.034;2023-04-08T12:07:22;20.03;;;14.73;;
7989;SDS011;4040;42.848;23.034;2023-04-08T12:13:11;22.20;;;13.47;;
7989;SDS011;4040;42.848;23.034;2023-04-08T12:19:01;16.27;;;12.23;;
7989;SDS011;4040;42.848;23.034;2023-04-08T12:24:49;19.37;;;12.00;;
7989;SDS011;4040;42.848;23.034;2023-04-08T12:30:38;26.10;;;15.90;;
7989;SDS011;4040;42.848;23.034;2023-04-08T12:40:50;34.87;;;18.53;;
7989;SDS011;4040;42.848;23.034;2023-04-08T12:46:38;13.60;;;11.70;;
7989;SDS011;4040;42.848;23.034;2023-04-08T12:52:27;11.43;;;9.67;;
7989;SDS011;4040;42.848;23.034;2023-04-08T12:58:17;15.27;;;11.23;;
7989;SDS011;4040;42.848;23.034;2023-04-08T13:04:06;14.23;;;9.83;;
7989;SDS011;4040;42.848;23.034;2023-04-08T13:09:55;16.30;;;11.10;;
7989;SDS011;4040;42.848;23.034;2023-04-08T13:15:46;13.00;;;9.93;;
7989;SDS011;4040;42.848;23.034;2023-04-08T13:21:34;11.27;;;9.20;;
7989;SDS011;4040;42.848;23.034;2023-04-08T13:27:23;10.20;;;9.10;;
7989;SDS011;4040;42.848;23.034;2023-04-08T13:33:13;13.17;;;10.23;;
7989;SDS011;4040;42.848;23.034;2023-04-08T13:43:25;13.40;;;10.40;;
7989;SDS011;4040;42.848;23.034;2023-04-08T13:49:15;14.43;;;10.83;;
7989;SDS011;4040;42.848;23.034;2023-04-08T13:55:04;15.60;;;11.63;;
7989;SDS011;4040;42.848;23.034;2023-04-08T14:00:53;17.90;;;12.90;;
7989;SDS011;4040;42.848;23.034;2023-04-08T14:06:43;12.87;;;10.80;;
7989;SDS011;4040;42.848;23.034;2023-04-08T14:12:32;14.67;;;10.43;;
7989;SDS011;4040;42.848;23.034;2023-04-08T14:18:21;12.63;;;10.10;;
7989;SDS011;4040;42.848;23.034;2023-04-08T14:24:11;11.20;;;9.87;;
7989;SDS011;4040;42.848;23.034;2023-04-08T14:29:59;20.13;;;12.10;;
7989;SDS011;4040;42.848;23.034;2023-04-08T14:35:49;12.57;;;10.03;;
7989;SDS011;4040;42.848;23.034;2023-04-08T14:46:03;14.37;;;10.60;;
7989;SDS011;4040;42.848;23.034;2023-04-08T14:51:51;28.87;;;17.63;;
7989;SDS011;4040;42.848;23.034;2023-04-08T14:57:40;21.03;;;14.23;;
7989;SDS011;4040;42.848;23.034;2023-04-08T15:03:30;25.03;;;16.07;;
7989;SDS011;4040;42.848;23.034;2023-04-08T15:09:19;19.17;;;13.00;;
7989;SDS011;4040;42.848;23.034;2023-04-08T15:15:38;27.13;;;15.90;;
7989;SDS011;4040;42.848;23.034;2023-04-08T15:21:28;39.20;;;19.00;;
7989;SDS011;4040;42.848;23.034;2023-04-08T15:27:17;23.80;;;15.17;;
7989;SDS011;4040;42.848;23.034;2023-04-08T15:33:05;13.87;;;10.70;;
7989;SDS011;4040;42.848;23.034;2023-04-08T15:38:56;13.90;;;10.80;;
7989;SDS011;4040;42.848;23.034;2023-04-08T15:49:06;22.37;;;14.40;;
7989;SDS011;4040;42.848;23.034;2023-04-08T15:54:56;27.43;;;17.00;;
7989;SDS011;4040;42.848;23.034;2023-04-08T16:00:45;15.90;;;11.67;;
7989;SDS011;4040;42.848;23.034;2023-04-08T16:06:34;29.87;;;16.47;;
7989;SDS011;4040;42.848;23.034;2023-04-08T16:12:24;18.33;;;12.77;;
7989;SDS011;4040;42.848;23.034;2023-04-08T16:18:13;16.90;;;11.53;;
7989;SDS011;4040;42.848;23.034;2023-04-08T16:24:01;13.27;;;10.00;;
7989;SDS011;4040;42.848;23.034;2023-04-08T16:29:52;18.77;;;14.07;;
7989;SDS011;4040;42.848;23.034;2023-04-08T16:35:42;28.13;;;15.53;;
7989;SDS011;4040;42.848;23.034;2023-04-08T16:41:31;51.77;;;31.07;;
7989;SDS011;4040;42.848;23.034;2023-04-08T16:51:42;21.83;;;13.43;;
7989;SDS011;4040;42.848;23.034;2023-04-08T16:57:32;20.27;;;14.50;;
7989;SDS011;4040;42.848;23.034;2023-04-08T17:03:20;11.93;;;9.10;;
7989;SDS011;4040;42.848;23.034;2023-04-08T17:09:10;18.87;;;11.70;;
7989;SDS011;4040;42.848;23.034;2023-04-08T17:14:59;26.57;;;15.77;;
7989;SDS011;4040;42.848;23.034;2023-04-08T17:20:48;65.17;;;25.33;;
7989;SDS011;4040;42.848;23.034;2023-04-08T17:26:40;22.10;;;16.03;;
7989;SDS011;4040;42.848;23.034;2023-04-08T17:32:29;32.47;;;14.90;;
7989;SDS011;4040;42.848;23.034;2023-04-08T17:38:18;22.03;;;17.67;;
7989;SDS011;4040;42.848;23.034;2023-04-08T17:44:08;18.70;;;12.57;;
7989;SDS011;4040;42.848;23.034;2023-04-08T17:54:19;1.13;;;1.10;;
7989;SDS011;4040;42.848;23.034;2023-04-08T18:00:09;4.23;;;2.70;;
7989;SDS011;4040;42.848;23.034;2023-04-08T18:05:59;4.37;;;3.03;;
7989;SDS011;4040;42.848;23.034;2023-04-08T18:11:48;2.20;;;1.90;;
7989;SDS011;4040;42.848;23.034;2023-04-08T18:17:38;3.67;;;3.00;;
7989;SDS011;4040;42.848;23.034;2023-04-08T18:23:26;3.47;;;2.00;;
7989;SDS011;4040;42.848;23.034;2023-04-08T18:29:15;3.27;;;2.97;;
7989;SDS011;4040;42.848;23.034;2023-04-08T18:35:06;2.20;;;1.70;;
7989;SDS011;4040;42.848;23.034;2023-04-08T18:40:55;1.40;;;1.30;;
7989;SDS011;4040;42.848;23.034;2023-04-08T18:46:44;2.00;;;1.17;;
7989;SDS011;4040;42.848;23.034;2023-04-08T18:56:57;7.30;;;2.23;;
7989;SDS011;4040;42.848;23.034;2023-04-08T19:02:46;7.50;;;6.67;;
7989;SDS011;4040;42.848;23.034;2023-04-08T19:08:35;1.43;;;1.33;;
7989;SDS011;4040;42.848;23.034;2023-04-08T19:14:26;5.40;;;4.40;;
7989;SDS011;4040;42.848;23.034;2023-04-08T19:20:15;15.10;;;3.97;;
7989;SDS011;4040;42.848;23.034;2023-04-08T19:26:03;1.40;;;1.30;;
7989;SDS011;4040;42.848;23.034;2023-04-08T19:31:54;1.73;;;1.63;;
7989;SDS011;4040;42.848;23.034;2023-04-08T19:37:44;2.67;;;2.40;;
7989;SDS011;4040;42.848;23.034;2023-04-08T19:43:33;2.10;;;2.00;;
7989;SDS011;4040;42.848;23.034;2023-04-08T19:49:23;2.13;;;1.93;;
7989;SDS011;4040;42.848;23.034;2023-04-08T19:59:34;1.67;;;1.33;;
7989;SDS011;4040;42.848;23.034;2023-04-08T20:05:24;2.53;;;2.37;;
7989;SDS011;4040;42.848;23.034;2023-04-08T20:11:13;1.93;;;1.77;;
7989;SDS011;4040;42.848;23.034;2023-04-08T20:17:02;4.03;;;2.10;;
7989;SDS011;4040;42.848;23.034;2023-04-08T20:22:52;1.17;;;1.00;;
7989;SDS011;4040;42.848;23.034;2023-04-08T20:28:41;2.03;;;1.93;;
7989;SDS011;4040;42.848;23.034;2023-04-08T20:34:31;8.30;;;3.77;;
7989;SDS011;4040;42.848;23.034;2023-04-08T20:40:21;2.07;;;1.87;;
7989;SDS011;4040;42.848;23.034;2023-04-08T20:46:10;3.70;;;3.40;;
7989;SDS011;4040;42.848;23.034;2023-04-08T20:51:59;3.97;;;2.20;;
7989;SDS011;4040;42.848;23.034;2023-04-08T21:02:11;2.37;;;1.80;;
7989;SDS011;4040;42.848;23.034;2023-04-08T21:08:01;1.60;;;1.50;;
7989;SDS011;4040;42.848;23.034;2023-04-08T21:13:50;1.60;;;1.50;;
7989;SDS011;4040;42.848;23.034;2023-04-08T21:19:40;1.53;;;1.43;;
7989;SDS011;4040;42.848;23.034;2023-04-08T21:25:30;2.53;;;1.80;;
7989;SDS011;4040;42.848;23.034;2023-04-08T21:31:19;11.73;;;2.80;;
7989;SDS011;4040;42.848;23.034;2023-04-08T21:37:09;2.60;;;2.40;;
7989;SDS011;4040;42.848;23.034;2023-04-08T21:42:57;1.60;;;1.50;;
7989;SDS011;4040;42.848;23.034;2023-04-08T21:48:46;5.83;;;1.40;;
7989;SDS011;4040;42.848;23.034;2023-04-08T21:54:36;5.60;;;1.73;;
7989;SDS011;4040;42.848;23.034;2023-04-08T22:08:25;1.37;;;1.37;;
7989;SDS011;4040;42.848;23.034;2023-04-08T22:14:14;3.50;;;2.27;;
7989;SDS011;4040;42.848;23.034;2023-04-08T22:20:03;2.27;;;2.10;;
7989;SDS011;4040;42.848;23.034;2023-04-08T22:25:54;3.67;;;2.43;;
7989;SDS011;4040;42.848;23.034;2023-04-08T22:31:43;1.63;;;1.53;;
7989;SDS011;4040;42.848;23.034;2023-04-08T22:37:32;4.73;;;3.70;;
7989;SDS011;4040;42.848;23.034;2023-04-08T22:43:22;18.00;;;2.57;;
7989;SDS011;4040;42.848;23.034;2023-04-08T22:49:11;1.90;;;1.80;;
7989;SDS011;4040;42.848;23.034;2023-04-08T22:55:00;3.83;;;2.57;;
7989;SDS011;4040;42.848;23.034;2023-04-08T23:00:50;1.33;;;1.23;;
7989;SDS011;4040;42.848;23.034;2023-04-08T23:11:01;4.30;;;2.83;;
7989;SDS011;4040;42.848;23.034;2023-04-08T23:16:52;2.63;;;2.43;;
7989;SDS011;4040;42.848;23.034;2023-04-08T23:22:40;4.13;;;2.57;;
7989;SDS011;4040;42.848;23.034;2023-04-08T23:28:29;1.77;;;1.67;;
7989;SDS011;4040;42.848;23.034;2023-04-08T23:34:19;2.47;;;1.20;;
7989;SDS011;4040;42.848;23.034;2023-04-08T23:40:08;2.37;;;2.23;;
7989;SDS011;4040;42.848;23.034;2023-04-08T23:45:57;2.47;;;1.80;;
7989;SDS011;4040;42.848;23.034;2023-04-08T23:51:47;2.23;;;2.13;;
7989;SDS011;4040;42.848;23.034;2023-04-08T23:57:36;1.57;;;1.43;;
